Архив погоды в Каменск-Шахтинском

Метеограмма Каменск-Шахтинский
Понедельник, 17 Июня
Время местн. Темп Ветер Видим Явления Облачность нижн/средн/верх Атм. давл. Влжн Точка росы ВНГО R Сост. почвы Tg s
Напр Скр Прв ур.ст ур.м изм
06:00 +16.9° штиль 0 - 20 км - ясно 755 760 +1.1 74% +12.3° более 2.5 км - Влажная (без луж) - -
03:00 +17.1° С-З 1 - 20 км небо без изменений {гроза, ливневые осадки} ясно 754 759 +0.3 90% +15.4° более 2.5 км - - - -
00:00 +17.6° С 1 - 20 км небо без изменений {гроза, ливневые осадки} переменная облачность 754 759 -0.4 90% +16° - - - - -
Воскресенье, 16 Июня
Время местн. Темп Ветер Видим Явления Облачность нижн/средн/верх Атм. давл. Влжн Точка росы ВНГО R Сост. почвы Tg s
Напр Скр Прв ур.ст ур.м изм
21:00 +19.2° В,Ю-В 1 - 20 км слабая или умеренная гроза с осадками облачно 754 759 +3.4 84% +16.4° 1 км - - - -
18:00 +31.8° С,С-З 1 - 20 км - преимущественно облачно 751 756 -0.9 28% +10.9° 1 км - - - -
15:00 +34.1° С,С-В 1 - 20 км - облачно с прояснениями 752 757 -1.2 26% +11.7° 1 км - - - -
12:00 +31.9° С 2 - 20 км - переменная облачность 753 758 -0.2 32% +13.2° 1.5 км - - - -
09:00 +26.2° штиль 0 - 20 км - переменная облачность 754 759 -0.2 51% +15.4° - - - - -
06:00 +19.7° штиль 0 - 20 км - ясно 754 759 -0.1 68% +13.7° более 2.5 км - Сухая (без трещин) - -
03:00 +17.9° штиль 0 - 20 км - незначительная облачность 754 759 -0.5 74% +13.3° - - - - -
00:00 +22.2° Ю,Ю-В 3 - 20 км - переменная облачность 754 759 +0.1 56% +12.9° - - - - -
Суббота, 15 Июня
Время местн. Темп Ветер Видим Явления Облачность нижн/средн/верх Атм. давл. Влжн Точка росы ВНГО R Сост. почвы Tg s
Напр Скр Прв ур.ст ур.м изм
21:00 +27° штиль 0 - 20 км - незначительная облачность 754 759 +0.2 31% +8.4° - - - - -
18:00 +32.5° штиль 0 - 20 км - ясно 754 759 -1 18% +5.1° более 2.5 км - - - -
15:00 +32.4° штиль 0 - 20 км - ясно 755 760 -1.5 17% +4.2° более 2.5 км - - - -
12:00 +29.7° штиль 0 - 20 км - ясно 757 762 -1 18% +3.2° более 2.5 км - - - -
09:00 +24.4° штиль 0 - 20 км - ясно 758 763 -0.3 33% +6.9° более 2.5 км - - - -
06:00 +13.4° штиль 0 - 20 км - ясно 758 763 0 71% +8.2° более 2.5 км - Сухая (без трещин) - -
03:00 +10.2° штиль 0 - 20 км - ясно 758 763 -0.8 79% +6.8° более 2.5 км - - - -
00:00 +13.9° штиль 0 - 20 км - ясно 759 764 +0.1 67% +7.8° более 2.5 км - - - -
Пятница, 14 Июня
Время местн. Темп Ветер Видим Явления Облачность нижн/средн/верх Атм. давл. Влжн Точка росы ВНГО R Сост. почвы Tg s
Напр Скр Прв ур.ст ур.м изм
21:00 +21.2° штиль 0 - 20 км - ясно 759 764 0 30% +3.1° более 2.5 км - - - -
18:00 +27.4° С-В 1 - 20 км - ясно 759 764 -0.9 15% -1.8° более 2.5 км - - - -
15:00 +28.4° В 3 - 20 км - ясно 760 765 -0.9 16% более 2.5 км - - - -
12:00 +26.6° В 5 - 20 км - ясно 761 766 -0.5 19% +0.9° более 2.5 км - - - -
09:00 +22.9° В,Ю-В 4 - 20 км - ясно 761 766 +0.5 29% +3.8° более 2.5 км - - - -
06:00 +18.5° В 3 - 20 км - ясно 760 766 +1.1 44% +5.9° более 2.5 км - Сухая (без трещин) - -
03:00 +19° В,Ю-В 1 - 20 км - переменная облачность 759 765 +0.8 54% +9.6° - - - - -